sensor_id;sensor_type;location;lat;lon;timestamp;pressure;altitude;pressure_sealevel;temperature;humidity
31162;BME280;17796;49.296;-117.656;2023-02-12T00:07:33;96900;;;4.36828;55.23919
31162;BME280;17796;49.296;-117.656;2023-02-12T00:22:37;96900;;;3.72709;55.97819
31162;BME280;17796;49.296;-117.656;2023-02-12T00:37:41;96900;;;2.1459;59.71945
31162;BME280;17796;49.296;-117.656;2023-02-12T00:52:45;97000;;;1.56665;62.4156
31162;BME280;17796;49.296;-117.656;2023-02-12T01:07:50;96900;;;0.31893;66.64319
31162;BME280;17796;49.296;-117.656;2023-02-12T01:22:55;96900;;;0.30909;66.16
31162;BME280;17796;49.296;-117.656;2023-02-12T01:37:59;96900;;;1.45233;61.8639
31162;BME280;17796;49.296;-117.656;2023-02-12T01:53:02;97000;;;0.01217;65.76708
31162;BME280;17796;49.296;-117.656;2023-02-12T02:08:06;97000;;;0.3834;65.00216
31162;BME280;17796;49.296;-117.656;2023-02-12T02:23:18;96900;;;0.5895;62.48427
31162;BME280;17796;49.296;-117.656;2023-02-12T02:38:40;96900;;;0.41674;62.96813
31162;BME280;17796;49.296;-117.656;2023-02-12T02:53:51;96900;;;-0.94242;67.06923
31162;BME280;17796;49.296;-117.656;2023-02-12T03:09:01;97000;;;-0.07325;63.51956
31162;BME280;17796;49.296;-117.656;2023-02-12T03:24:14;97000;;;-1.19202;67.53763
31162;BME280;17796;49.296;-117.656;2023-02-12T03:39:27;97000;;;-2.70104;77.09667
31162;BME280;17796;49.296;-117.656;2023-02-12T03:54:36;97000;;;-1.25362;70.14805
31162;BME280;17796;49.296;-117.656;2023-02-12T04:09:40;97100;;;-0.70711;68.45836
31162;BME280;17796;49.296;-117.656;2023-02-12T04:24:45;97100;;;-0.85064;70.13593
31162;BME280;17796;49.296;-117.656;2023-02-12T04:39:59;97100;;;-1.13803;68.52466
31162;BME280;17796;49.296;-117.656;2023-02-12T04:55:06;97100;;;-1.08659;68.3428
31162;BME280;17796;49.296;-117.656;2023-02-12T05:10:10;97100;;;-1.29395;68.48574
31162;BME280;17796;49.296;-117.656;2023-02-12T05:25:14;97100;;;-2.85442;74.52583
31162;BME280;17796;49.296;-117.656;2023-02-12T05:40:18;97100;;;-1.56356;68.09461
31162;BME280;17796;49.296;-117.656;2023-02-12T05:55:21;97100;;;-2.18184;70.74476
31162;BME280;17796;49.296;-117.656;2023-02-12T06:10:25;97100;;;-1.80014;67.81538
31162;BME280;17796;49.296;-117.656;2023-02-12T06:25:29;97200;;;-1.6855;68.90372
31162;BME280;17796;49.296;-117.656;2023-02-12T06:40:32;97100;;;-2.21677;72.75546
31162;BME280;17796;49.296;-117.656;2023-02-12T06:55:36;97100;;;-2.34443;72.45633
31162;BME280;17796;49.296;-117.656;2023-02-12T07:10:40;97100;;;-2.46796;71.13519
31162;BME280;17796;49.296;-117.656;2023-02-12T07:25:47;97200;;;-2.55116;71.39489
31162;BME280;17796;49.296;-117.656;2023-02-12T07:41:05;97200;;;-4.24846;79.20787
31162;BME280;17796;49.296;-117.656;2023-02-12T07:56:10;97100;;;-3.56033;77.01984
31162;BME280;17796;49.296;-117.656;2023-02-12T08:11:17;97100;;;-2.67945;73.1236
31162;BME280;17796;49.296;-117.656;2023-02-12T08:26:21;97100;;;-2.66325;70.57551
31162;BME280;17796;49.296;-117.656;2023-02-12T08:41:27;97200;;;-3.03003;72.01275
31162;BME280;17796;49.296;-117.656;2023-02-12T08:56:32;97200;;;-3.74928;76.99089
31162;BME280;17796;49.296;-117.656;2023-02-12T09:11:37;97200;;;-4.15891;77.49276
31162;BME280;17796;49.296;-117.656;2023-02-12T09:26:42;97200;;;-3.7515;75.44742
31162;BME280;17796;49.296;-117.656;2023-02-12T09:41:52;97200;;;-3.1815;73.53612
31162;BME280;17796;49.296;-117.656;2023-02-12T09:57:15;97200;;;-2.66198;70.18949
31162;BME280;17796;49.296;-117.656;2023-02-12T10:12:26;97200;;;-3.08972;75.24262
31162;BME280;17796;49.296;-117.656;2023-02-12T10:27:40;97200;;;-2.60895;70.28616
31162;BME280;17796;49.296;-117.656;2023-02-12T10:42:48;97200;;;-3.93726;77.37326
31162;BME280;17796;49.296;-117.656;2023-02-12T10:57:54;97200;;;-4.11795;77.74512
31162;BME280;17796;49.296;-117.656;2023-02-12T11:12:59;97200;;;-3.08972;72.72989
31162;BME280;17796;49.296;-117.656;2023-02-12T11:28:09;97200;;;-4.03856;77.90433
31162;BME280;17796;49.296;-117.656;2023-02-12T11:43:18;97200;;;-3.25104;74.00204
31162;BME280;17796;49.296;-117.656;2023-02-12T11:58:22;97200;;;-3.81914;77.77978
31162;BME280;17796;49.296;-117.656;2023-02-12T12:13:29;97200;;;-3.14498;73.52847
31162;BME280;17796;49.296;-117.656;2023-02-12T12:28:39;97200;;;-2.69342;70.54046
31162;BME280;17796;49.296;-117.656;2023-02-12T12:43:51;97200;;;-2.65182;70.52205
31162;BME280;17796;49.296;-117.656;2023-02-12T12:59:10;97200;;;-2.61022;70.37309
31162;BME280;17796;49.296;-117.656;2023-02-12T13:14:32;97200;;;-3.06781;72.11276
31162;BME280;17796;49.296;-117.656;2023-02-12T13:29:45;97200;;;-2.74391;72.59644
31162;BME280;17796;49.296;-117.656;2023-02-12T13:44:55;97200;;;-2.75566;72.89428
31162;BME280;17796;49.296;-117.656;2023-02-12T14:00:17;97100;;;-2.34189;71.65146
31162;BME280;17796;49.296;-117.656;2023-02-12T14:15:59;97100;;;-2.30855;71.76302
31162;BME280;17796;49.296;-117.656;2023-02-12T14:46:43;97100;;;-2.74232;72.44443
31162;BME280;17796;49.296;-117.656;2023-02-12T15:01:49;97100;;;-1.96114;69.455
31162;BME280;17796;49.296;-117.656;2023-02-12T15:16:54;97100;;;-1.91922;69.81243
31162;BME280;17796;49.296;-117.656;2023-02-12T15:32:04;97100;;;-2.18248;71.19653
31162;BME280;17796;49.296;-117.656;2023-02-12T15:47:11;97100;;;-1.57277;69.51768
31162;BME280;17796;49.296;-117.656;2023-02-12T16:02:17;97100;;;-1.34254;68.97334
31162;BME280;17796;49.296;-117.656;2023-02-12T16:17:26;97100;;;-1.40034;69.19815
31162;BME280;17796;49.296;-117.656;2023-02-12T16:32:34;97000;;;-0.87891;67.45093
31162;BME280;17796;49.296;-117.656;2023-02-12T16:47:40;97000;;;-1.05579;69.7104
31162;BME280;17796;49.296;-117.656;2023-02-12T17:02:50;97000;;;-0.84937;68.21827
31162;BME280;17796;49.296;-117.656;2023-02-12T17:17:57;97000;;;-0.10977;66.32859
31162;BME280;17796;49.296;-117.656;2023-02-12T17:33:00;97100;;;0.02836;63.23521
31162;BME280;17796;49.296;-117.656;2023-02-12T17:48:05;97100;;;0.39324;64.49252
31162;BME280;17796;49.296;-117.656;2023-02-12T18:03:09;97100;;;-0.20187;65.82931
31162;BME280;17796;49.296;-117.656;2023-02-12T18:18:13;97100;;;0.78639;63.38066
31162;BME280;17796;49.296;-117.656;2023-02-12T18:33:17;97100;;;0.37832;66.4828
31162;BME280;17796;49.296;-117.656;2023-02-12T18:48:21;97000;;;0.22621;68.82324
31162;BME280;17796;49.296;-117.656;2023-02-12T19:03:25;97000;;;0.17921;67.47748
31162;BME280;17796;49.296;-117.656;2023-02-12T19:18:29;97000;;;1.08903;65.54282
31162;BME280;17796;49.296;-117.656;2023-02-12T19:33:32;97000;;;1.32562;63.6613
31162;BME280;17796;49.296;-117.656;2023-02-12T19:48:36;97000;;;1.41009;65.30566
31162;BME280;17796;49.296;-117.656;2023-02-12T20:03:40;96900;;;0.93056;65.52681
31162;BME280;17796;49.296;-117.656;2023-02-12T20:18:45;96900;;;1.29831;61.92656
31162;BME280;17796;49.296;-117.656;2023-02-12T20:33:52;96900;;;2.14367;61.07089
31162;BME280;17796;49.296;-117.656;2023-02-12T20:48:57;96900;;;2.5816;60.56504
31162;BME280;17796;49.296;-117.656;2023-02-12T21:04:03;96900;;;2.09572;59.43544
31162;BME280;17796;49.296;-117.656;2023-02-12T21:19:08;96800;;;1.80546;60.3742
31162;BME280;17796;49.296;-117.656;2023-02-12T21:34:13;96800;;;2.84963;57.60553
31162;BME280;17796;49.296;-117.656;2023-02-12T21:49:18;96800;;;3.12211;57.4357
31162;BME280;17796;49.296;-117.656;2023-02-12T22:04:22;96800;;;2.48062;57.93626
31162;BME280;17796;49.296;-117.656;2023-02-12T22:19:27;96800;;;2.70704;58.01344
31162;BME280;17796;49.296;-117.656;2023-02-12T22:34:31;96700;;;2.70482;57.05137
31162;BME280;17796;49.296;-117.656;2023-02-12T22:49:35;96700;;;2.72737;58.75508
31162;BME280;17796;49.296;-117.656;2023-02-12T23:04:39;96700;;;2.74928;57.69481
31162;BME280;17796;49.296;-117.656;2023-02-12T23:19:43;96700;;;2.66322;58.28768
31162;BME280;17796;49.296;-117.656;2023-02-12T23:34:47;96700;;;2.77881;58.42045
31162;BME280;17796;49.296;-117.656;2023-02-12T23:49:51;96600;;;2.88647;58.35383
